Time;durP1;ratioP1;P1;durP2;ratioP2;P2;SDS_P1;SDS_P2;PMS_P1;PMS_P2;Temp;Humidity;BMP_temperature;BMP_pressure;BME280_temperature;BME280_humidity;BME280_pressure;Samples;Min_cycle;Max_cycle;Signal;HPM_P1;HPM_P2
2023/08/20 00:02:06;;;;;;;8.82;4.90;;;16.10;99.90;;;;;;5014892;28;20096;-67
2023/08/20 00:04:36;;;;;;;10.13;6.13;;;16.10;99.90;;;;;;5015400;28;20385;-67
2023/08/20 00:07:02;;;;;;;16.58;7.13;;;16.20;99.90;;;;;;4997845;28;20034;-67
2023/08/20 00:09:29;;;;;;;13.82;7.53;;;16.20;99.90;;;;;;4992327;28;20053;-67
2023/08/20 00:11:55;;;;;;;10.43;5.63;;;16.20;99.90;;;;;;5014422;28;20046;-67
2023/08/20 00:14:58;;;;;;;8.70;4.78;;;16.20;99.90;;;;;;4996708;28;20152;-67
2023/08/20 00:17:26;;;;;;;5.32;3.58;;;16.20;99.90;;;;;;4979911;28;20385;-67
2023/08/20 00:19:54;;;;;;;10.60;5.18;;;16.10;99.90;;;;;;5004123;28;20120;-67
2023/08/20 00:22:22;;;;;;;10.82;6.22;;;16.10;99.90;;;;;;5009541;28;20042;-67
2023/08/20 00:24:48;;;;;;;14.30;7.18;;;16.00;99.90;;;;;;4985185;28;20159;-68
2023/08/20 00:27:14;;;;;;;12.18;7.78;;;16.10;99.90;;;;;;4992877;28;20388;-67
2023/08/20 00:29:39;;;;;;;15.23;8.18;;;16.10;99.90;;;;;;5014224;28;20038;-67
2023/08/20 00:32:05;;;;;;;15.63;8.02;;;16.10;99.90;;;;;;4991977;28;20469;-68
2023/08/20 00:34:30;;;;;;;13.80;7.57;;;16.10;99.90;;;;;;5013782;28;20092;-67
2023/08/20 00:36:56;;;;;;;17.52;8.50;;;16.00;99.90;;;;;;5014271;28;20037;-67
2023/08/20 00:39:22;;;;;;;13.80;7.35;;;16.10;99.90;;;;;;4993433;28;20499;-67
2023/08/20 00:41:47;;;;;;;10.85;6.78;;;16.00;99.90;;;;;;5008862;28;20041;-67
2023/08/20 00:44:13;;;;;;;8.18;5.22;;;15.90;99.90;;;;;;5014005;28;20067;-67
2023/08/20 00:46:39;;;;;;;10.40;6.00;;;15.90;99.90;;;;;;5014010;28;20480;-67
2023/08/20 00:49:05;;;;;;;10.55;5.82;;;15.80;99.90;;;;;;5009462;28;20026;-66
2023/08/20 00:51:33;;;;;;;13.07;6.90;;;15.80;99.90;;;;;;5007808;28;20735;-67
2023/08/20 00:54:00;;;;;;;12.80;7.47;;;15.80;99.90;;;;;;5014122;28;20435;-67
2023/08/20 00:56:26;;;;;;;17.55;5.38;;;15.90;99.90;;;;;;5004282;28;20030;-67
2023/08/20 00:58:54;;;;;;;17.63;4.53;;;15.90;99.90;;;;;;5004901;28;20037;-67
2023/08/20 01:01:20;;;;;;;7.10;4.65;;;15.90;99.90;;;;;;5013815;28;20496;-67
2023/08/20 01:03:46;;;;;;;11.82;7.38;;;15.90;99.90;;;;;;5013932;28;20052;-67
2023/08/20 01:06:53;;;;;;;15.02;8.23;;;15.90;99.90;;;;;;4998363;28;20504;-67
2023/08/20 01:09:45;;;;;;;16.38;8.70;;;16.00;99.90;;;;;;4980731;28;20037;-67
2023/08/20 01:12:13;;;;;;;18.15;9.65;;;16.00;99.90;;;;;;4987109;28;20042;-68
2023/08/20 01:14:39;;;;;;;15.48;9.73;;;16.00;99.90;;;;;;5006107;28;20045;-68
2023/08/20 01:17:04;;;;;;;17.10;10.13;;;16.00;99.90;;;;;;4993062;28;20042;-67
2023/08/20 01:19:30;;;;;;;12.88;8.43;;;16.00;99.90;;;;;;5013289;28;20034;-67
2023/08/20 01:22:05;;;;;;;14.88;9.98;;;16.00;99.90;;;;;;5010290;28;20045;-67
2023/08/20 01:24:39;;;;;;;19.73;9.18;;;16.00;99.90;;;;;;5012664;28;20500;-67
2023/08/20 01:27:14;;;;;;;15.65;9.57;;;15.90;99.90;;;;;;5013032;28;20675;-67
2023/08/20 01:29:40;;;;;;;13.13;8.18;;;15.90;99.90;;;;;;5013426;28;20042;-67
2023/08/20 01:32:06;;;;;;;20.02;7.68;;;15.80;99.90;;;;;;5002138;28;20037;-67
2023/08/20 01:34:33;;;;;;;12.88;7.30;;;15.70;99.90;;;;;;5010170;28;20033;-67
2023/08/20 01:36:58;;;;;;;11.65;7.07;;;15.70;99.90;;;;;;5013218;28;20113;-67
2023/08/20 01:39:24;;;;;;;12.43;7.60;;;15.60;99.90;;;;;;5004184;28;20502;-67
2023/08/20 01:41:49;;;;;;;14.40;7.90;;;15.60;99.90;;;;;;5012086;28;20042;-67
2023/08/20 01:44:15;;;;;;;8.60;5.90;;;15.50;99.90;;;;;;5013133;28;20492;-67
2023/08/20 01:46:41;;;;;;;8.05;6.28;;;15.50;99.90;;;;;;5009798;28;21458;-66
2023/08/20 01:49:07;;;;;;;10.07;6.68;;;15.40;99.90;;;;;;5006302;28;20504;-66
2023/08/20 01:51:32;;;;;;;8.90;5.30;;;15.40;99.90;;;;;;5012914;28;20076;-66
2023/08/20 01:53:58;;;;;;;10.20;7.82;;;15.30;99.90;;;;;;4995199;28;20038;-67
2023/08/20 01:56:24;;;;;;;13.90;7.30;;;15.30;99.90;;;;;;5006561;28;20077;-67
2023/08/20 01:58:49;;;;;;;12.93;8.20;;;15.40;99.90;;;;;;5002366;28;20038;-67
2023/08/20 02:01:15;;;;;;;14.20;7.97;;;15.50;99.90;;;;;;5012394;28;20037;-67
2023/08/20 02:03:41;;;;;;;16.05;10.55;;;15.60;99.90;;;;;;4990334;28;20052;-67
2023/08/20 02:06:06;;;;;;;17.70;10.15;;;15.70;99.90;;;;;;5002820;28;20121;-67
2023/08/20 02:08:32;;;;;;;15.02;10.00;;;15.70;99.90;;;;;;4994527;28;20042;-67
2023/08/20 02:11:02;;;;;;;14.10;8.75;;;15.70;99.90;;;;;;5012868;28;20034;-67
2023/08/20 02:13:28;;;;;;;9.07;6.00;;;15.70;99.90;;;;;;5007630;28;20492;-67
2023/08/20 02:16:03;;;;;;;9.40;5.75;;;15.60;99.90;;;;;;5000107;28;20041;-66
2023/08/20 02:18:30;;;;;;;7.40;4.65;;;15.50;99.90;;;;;;5012191;28;20109;-67
2023/08/20 02:20:56;;;;;;;7.82;5.25;;;15.40;99.90;;;;;;4984361;28;20046;-67
2023/08/20 02:23:21;;;;;;;9.07;6.65;;;15.30;99.90;;;;;;5002124;28;20049;-66
2023/08/20 02:25:47;;;;;;;12.98;8.18;;;15.30;99.90;;;;;;5012448;28;20065;-67
2023/08/20 02:28:13;;;;;;;13.40;8.93;;;15.30;99.90;;;;;;5011988;28;20072;-67
2023/08/20 02:30:45;;;;;;;18.80;11.43;;;15.30;99.90;;;;;;5005200;28;20046;-67
2023/08/20 02:33:11;;;;;;;24.60;13.02;;;15.40;99.90;;;;;;5011877;28;20443;-67
2023/08/20 02:35:40;;;;;;;19.60;11.95;;;15.50;99.90;;;;;;5012048;28;20038;-67
2023/08/20 02:38:06;;;;;;;17.38;9.50;;;15.50;99.90;;;;;;5001689;28;20038;-68
2023/08/20 02:40:32;;;;;;;21.75;12.80;;;15.50;99.90;;;;;;5011706;28;20030;-68
2023/08/20 02:42:58;;;;;;;24.77;13.25;;;15.60;99.90;;;;;;5024185;28;20513;-68
2023/08/20 02:45:24;;;;;;;25.67;14.77;;;15.70;99.90;;;;;;5022647;28;20042;-67
2023/08/20 02:47:49;;;;;;;29.65;14.70;;;15.80;99.90;;;;;;4999487;28;20030;-67
2023/08/20 02:50:15;;;;;;;24.52;14.48;;;15.80;99.90;;;;;;4993978;28;20037;-67
2023/08/20 02:52:42;;;;;;;22.52;13.65;;;15.90;99.90;;;;;;5012458;28;20038;-68
2023/08/20 02:55:08;;;;;;;19.27;13.75;;;15.80;99.90;;;;;;4997636;28;20088;-67
2023/08/20 02:57:34;;;;;;;25.42;14.88;;;15.80;99.90;;;;;;5008470;28;20420;-68
2023/08/20 02:59:59;;;;;;;23.30;14.00;;;15.80;99.90;;;;;;5011877;28;20042;-68
2023/08/20 03:02:25;;;;;;;21.23;13.40;;;15.80;99.90;;;;;;5003298;28;20078;-67
2023/08/20 03:04:51;;;;;;;21.45;12.65;;;15.80;99.90;;;;;;5007709;28;20045;-67
2023/08/20 03:07:16;;;;;;;21.73;13.05;;;15.70;99.90;;;;;;5011603;28;20053;-67
2023/08/20 03:09:42;;;;;;;22.13;12.77;;;15.70;99.90;;;;;;5010167;28;20038;-68
2023/08/20 03:12:08;;;;;;;22.95;12.98;;;15.70;99.90;;;;;;4997292;28;20849;-67
2023/08/20 03:14:33;;;;;;;21.42;12.88;;;15.70;99.90;;;;;;5008304;28;20034;-68
2023/08/20 03:16:59;;;;;;;21.77;13.13;;;15.70;99.90;;;;;;5011811;28;20124;-67
2023/08/20 03:19:25;;;;;;;24.88;13.45;;;15.70;99.90;;;;;;5008752;28;20066;-67
2023/08/20 03:21:50;;;;;;;19.98;13.93;;;15.70;99.90;;;;;;5003878;28;20038;-68
2023/08/20 03:24:16;;;;;;;22.77;14.32;;;15.70;99.90;;;;;;5011373;28;20026;-67
2023/08/20 03:26:41;;;;;;;27.38;14.77;;;15.70;99.90;;;;;;5007444;28;20186;-68
2023/08/20 03:29:07;;;;;;;22.08;14.18;;;15.70;99.90;;;;;;5003973;28;20041;-67
2023/08/20 03:31:33;;;;;;;22.65;15.02;;;15.70;99.90;;;;;;5011489;28;20400;-68
2023/08/20 03:33:58;;;;;;;27.25;14.88;;;15.60;99.90;;;;;;5011459;28;20124;-68
2023/08/20 03:36:24;;;;;;;23.00;14.27;;;15.60;99.90;;;;;;5001010;28;20030;-68
2023/08/20 03:38:49;;;;;;;19.95;13.35;;;15.60;99.90;;;;;;4986388;28;20377;-68
2023/08/20 03:41:15;;;;;;;21.67;13.95;;;15.50;99.90;;;;;;5011400;28;20040;-68
2023/08/20 03:43:41;;;;;;;22.27;13.65;;;15.40;99.90;;;;;;4989879;28;20045;-67
2023/08/20 03:46:06;;;;;;;21.83;14.20;;;15.40;99.90;;;;;;4986682;28;20041;-67
2023/08/20 03:48:32;;;;;;;22.55;14.07;;;15.40;99.90;;;;;;5004963;28;20413;-67
2023/08/20 03:50:58;;;;;;;25.10;14.23;;;15.40;99.90;;;;;;5009728;28;20038;-68
2023/08/20 03:53:23;;;;;;;27.63;14.23;;;15.40;99.90;;;;;;5010526;28;20036;-67
2023/08/20 03:55:49;;;;;;;27.73;16.05;;;15.40;99.90;;;;;;5002272;28;20484;-67
2023/08/20 03:58:16;;;;;;;24.73;13.05;;;15.40;99.90;;;;;;4999306;28;20373;-67
2023/08/20 04:00:41;;;;;;;21.48;13.23;;;15.40;99.90;;;;;;4997207;28;20396;-67
2023/08/20 04:03:07;;;;;;;18.77;11.52;;;15.30;99.90;;;;;;4998555;28;20042;-67
2023/08/20 04:05:37;;;;;;;15.15;12.02;;;15.20;99.90;;;;;;4993047;28;20042;-67
2023/08/20 04:08:04;;;;;;;19.63;13.40;;;15.20;99.90;;;;;;5011307;28;20052;-67
2023/08/20 04:10:29;;;;;;;22.60;12.70;;;15.10;99.90;;;;;;5000719;28;20077;-68
2023/08/20 04:12:55;;;;;;;22.25;14.25;;;15.10;99.90;;;;;;5003375;28;20062;-67
2023/08/20 04:15:20;;;;;;;17.42;13.65;;;15.10;99.90;;;;;;5001412;28;20113;-68
2023/08/20 04:17:47;;;;;;;15.88;11.55;;;15.00;99.90;;;;;;5006679;28;20436;-68
2023/08/20 04:20:12;;;;;;;12.45;10.05;;;14.90;99.90;;;;;;5010504;28;20415;-67
2023/08/20 04:22:38;;;;;;;14.20;10.60;;;14.70;99.90;;;;;;4994883;28;20049;-67
2023/08/20 04:25:04;;;;;;;15.07;9.85;;;14.60;99.90;;;;;;5007717;28;20495;-67
2023/08/20 04:27:30;;;;;;;13.18;9.48;;;14.50;99.90;;;;;;5014015;28;20048;-67
2023/08/20 04:29:56;;;;;;;71.95;10.77;;;14.50;99.90;;;;;;5005031;28;20034;-68
2023/08/20 04:32:22;;;;;;;23.10;12.18;;;14.50;99.90;;;;;;5004527;28;20439;-68
2023/08/20 04:34:49;;;;;;;22.30;11.10;;;14.40;99.90;;;;;;5003589;28;20041;-68
2023/08/20 04:37:15;;;;;;;15.40;10.27;;;14.40;99.90;;;;;;5013942;28;20116;-67
2023/08/20 04:39:41;;;;;;;16.42;10.15;;;14.30;99.90;;;;;;4996666;28;20133;-67
2023/08/20 04:42:06;;;;;;;54.75;10.85;;;14.30;99.90;;;;;;5009701;28;20048;-67
2023/08/20 04:44:32;;;;;;;9.50;7.50;;;14.30;99.90;;;;;;5012767;28;20034;-68
2023/08/20 04:46:57;;;;;;;10.68;7.68;;;14.30;99.90;;;;;;5004890;28;20034;-67
2023/08/20 04:49:27;;;;;;;8.90;7.40;;;14.30;99.90;;;;;;5013341;28;20068;-68
2023/08/20 04:51:53;;;;;;;10.23;7.68;;;14.30;99.90;;;;;;5005062;28;20049;-68
2023/08/20 04:54:19;;;;;;;16.35;7.57;;;14.40;99.90;;;;;;4991955;28;20037;-67
2023/08/20 04:56:44;;;;;;;34.17;7.65;;;14.40;99.90;;;;;;5013804;28;20045;-68
2023/08/20 04:59:11;;;;;;;11.05;7.88;;;14.40;99.90;;;;;;5009201;28;20519;-67
2023/08/20 05:01:38;;;;;;;13.52;7.30;;;14.40;99.90;;;;;;5013127;28;20566;-67
2023/08/20 05:04:03;;;;;;;92.57;8.13;;;14.50;99.90;;;;;;4996602;28;20034;-67
2023/08/20 05:06:29;;;;;;;94.32;8.82;;;14.50;99.90;;;;;;4993664;28;20358;-67
2023/08/20 05:08:55;;;;;;;151.80;9.25;;;14.50;99.90;;;;;;4995145;28;20065;-67
2023/08/20 05:11:20;;;;;;;84.63;7.72;;;14.40;99.90;;;;;;4980205;28;20132;-67
2023/08/20 05:13:49;;;;;;;74.00;8.95;;;14.50;99.90;;;;;;4994785;28;20038;-68
2023/08/20 05:16:15;;;;;;;10.35;8.57;;;14.60;99.90;;;;;;4990171;28;20034;-68
2023/08/20 05:18:40;;;;;;;14.93;11.10;;;14.70;99.90;;;;;;4995466;28;20539;-67
2023/08/20 05:21:11;;;;;;;20.15;14.15;;;14.80;99.90;;;;;;4993825;28;20046;-67
2023/08/20 05:23:37;;;;;;;20.80;14.68;;;15.00;99.90;;;;;;4975892;28;20038;-67
2023/08/20 05:26:02;;;;;;;22.02;15.55;;;15.10;99.90;;;;;;4996800;28;20044;-67
2023/08/20 05:28:28;;;;;;;24.50;15.15;;;15.20;99.90;;;;;;4995514;28;20620;-68
2023/08/20 05:30:57;;;;;;;26.30;16.52;;;15.30;99.90;;;;;;4994162;28;20034;-67
2023/08/20 05:33:23;;;;;;;25.48;15.27;;;15.40;99.90;;;;;;4996053;28;20753;-67
2023/08/20 05:35:49;;;;;;;24.08;14.80;;;15.50;99.90;;;;;;4999050;28;20057;-67
2023/08/20 05:38:15;;;;;;;26.55;16.48;;;15.60;99.90;;;;;;4994827;28;20038;-67
2023/08/20 05:40:41;;;;;;;28.48;16.75;;;15.70;99.90;;;;;;4990549;28;20104;-67
2023/08/20 05:43:06;;;;;;;28.02;15.82;;;15.80;99.90;;;;;;4978706;28;20483;-68
2023/08/20 05:45:32;;;;;;;28.30;16.23;;;15.80;99.90;;;;;;4978973;28;20046;-67
2023/08/20 05:47:57;;;;;;;26.27;15.70;;;16.00;99.90;;;;;;4972840;28;20109;-67
2023/08/20 05:50:23;;;;;;;25.63;16.27;;;16.00;99.90;;;;;;4996621;28;20084;-68
2023/08/20 05:52:49;;;;;;;26.73;16.02;;;16.10;99.90;;;;;;4994407;28;20400;-68
2023/08/20 05:55:15;;;;;;;29.13;16.20;;;16.20;99.90;;;;;;4975585;28;20064;-68
2023/08/20 05:57:42;;;;;;;27.80;15.82;;;16.20;99.90;;;;;;4992899;28;20046;-67
2023/08/20 06:00:10;;;;;;;27.05;16.25;;;16.30;99.90;;;;;;4995421;28;20053;-67
2023/08/20 06:02:36;;;;;;;29.80;16.52;;;16.30;99.90;;;;;;4994039;28;20400;-67
2023/08/20 06:05:04;;;;;;;26.58;17.23;;;16.40;99.90;;;;;;4975235;28;20038;-66
2023/08/20 06:07:32;;;;;;;25.67;16.75;;;16.50;99.90;;;;;;4991079;28;20048;-68
2023/08/20 06:09:58;;;;;;;25.67;17.33;;;16.50;99.90;;;;;;4989137;28;20044;-67
2023/08/20 06:12:24;;;;;;;31.15;17.38;;;16.70;99.90;;;;;;4998371;28;20042;-68
2023/08/20 06:14:50;;;;;;;28.85;17.25;;;16.70;99.90;;;;;;4973715;28;20057;-67
2023/08/20 06:17:16;;;;;;;28.00;17.13;;;16.80;99.90;;;;;;4992332;28;20038;-68
2023/08/20 06:19:41;;;;;;;28.35;16.90;;;16.90;99.90;;;;;;4991420;28;20049;-68
2023/08/20 06:22:07;;;;;;;24.33;17.48;;;17.00;99.90;;;;;;4970622;28;20061;-67
2023/08/20 06:24:33;;;;;;;26.75;16.98;;;17.10;99.90;;;;;;4988188;28;20029;-67
2023/08/20 06:26:58;;;;;;;27.55;16.65;;;17.10;99.90;;;;;;4991456;28;20042;-67
2023/08/20 06:29:24;;;;;;;24.45;15.90;;;17.30;99.90;;;;;;4979000;28;20057;-67
2023/08/20 06:31:50;;;;;;;25.38;15.32;;;17.30;99.90;;;;;;4971750;28;20041;-67
2023/08/20 06:34:16;;;;;;;23.83;15.05;;;17.40;99.90;;;;;;5003401;28;20412;-67
2023/08/20 06:36:42;;;;;;;27.13;16.48;;;17.50;99.90;;;;;;5002617;28;20041;-67
2023/08/20 06:39:08;;;;;;;25.23;14.93;;;17.70;99.90;;;;;;4999902;28;20046;-67
2023/08/20 06:41:34;;;;;;;26.60;13.55;;;17.70;99.90;;;;;;4970481;28;20357;-68
2023/08/20 06:44:00;;;;;;;25.45;13.80;;;17.80;99.90;;;;;;4999902;28;20113;-68
2023/08/20 06:46:25;;;;;;;23.17;14.55;;;17.90;99.90;;;;;;4998271;28;20062;-67
2023/08/20 06:48:51;;;;;;;23.83;14.82;;;18.00;99.90;;;;;;4979063;28;20046;-67
2023/08/20 06:51:21;;;;;;;20.00;13.48;;;18.10;99.90;;;;;;4995246;28;20041;-67
2023/08/20 06:53:46;;;;;;;22.55;13.55;;;18.20;99.90;;;;;;4990011;28;20498;-67
2023/08/20 06:56:12;;;;;;;24.27;13.60;;;18.20;99.90;;;;;;5008951;28;20145;-67
2023/08/20 06:58:39;;;;;;;21.38;12.63;;;18.30;99.90;;;;;;4983307;28;20042;-67
2023/08/20 07:01:08;;;;;;;19.48;11.70;;;18.30;99.90;;;;;;5000212;28;20540;-67
2023/08/20 07:03:38;;;;;;;21.88;11.98;;;18.40;99.90;;;;;;5000556;28;20050;-67
2023/08/20 07:06:04;;;;;;;21.02;11.57;;;18.50;99.90;;;;;;5001386;28;20084;-67
2023/08/20 07:08:30;;;;;;;20.85;11.95;;;18.50;99.90;;;;;;5007868;28;20033;-67
2023/08/20 07:10:56;;;;;;;18.75;11.68;;;18.60;99.90;;;;;;5009100;28;20037;-67
2023/08/20 07:13:23;;;;;;;22.77;10.88;;;18.70;99.90;;;;;;5001895;28;20095;-67
2023/08/20 07:15:48;;;;;;;19.20;11.18;;;18.70;99.90;;;;;;4997191;28;20070;-67
2023/08/20 07:18:14;;;;;;;20.48;11.23;;;18.80;99.90;;;;;;4988731;28;20073;-69
2023/08/20 07:20:42;;;;;;;18.30;11.25;;;18.90;99.90;;;;;;5000608;28;20396;-69
2023/08/20 07:23:08;;;;;;;19.52;11.70;;;19.00;99.90;;;;;;5002367;28;20050;-68
2023/08/20 07:25:40;;;;;;;18.77;10.30;;;19.10;99.90;;;;;;5008063;28;20038;-68
2023/08/20 07:28:08;;;;;;;19.55;10.10;;;19.10;99.90;;;;;;5003134;28;20042;-69
2023/08/20 07:30:35;;;;;;;20.27;10.90;;;19.10;99.90;;;;;;4977251;28;20043;-68
2023/08/20 07:33:01;;;;;;;23.75;10.50;;;19.20;99.90;;;;;;4987086;28;20042;-69
2023/08/20 07:35:26;;;;;;;17.08;8.55;;;19.30;99.90;;;;;;5008080;28;20073;-69
2023/08/20 07:37:52;;;;;;;19.13;9.05;;;19.30;99.90;;;;;;4985487;28;20073;-68
2023/08/20 07:40:18;;;;;;;16.23;10.07;;;19.40;99.90;;;;;;4974318;28;20045;-68
2023/08/20 07:42:44;;;;;;;15.07;8.57;;;19.40;99.90;;;;;;4999350;28;20046;-68
2023/08/20 07:45:10;;;;;;;16.83;8.45;;;19.50;99.90;;;;;;4999183;28;20050;-68
2023/08/20 07:47:37;;;;;;;20.73;8.50;;;19.60;99.90;;;;;;4973371;28;20927;-68
2023/08/20 07:50:04;;;;;;;18.63;8.00;;;19.60;99.90;;;;;;4988361;28;20138;-68
2023/08/20 07:52:30;;;;;;;18.60;8.93;;;19.70;99.90;;;;;;5008109;28;20042;-68
2023/08/20 07:54:56;;;;;;;19.27;8.13;;;19.80;99.90;;;;;;4998693;28;20038;-67
2023/08/20 07:57:23;;;;;;;19.23;8.30;;;19.80;99.90;;;;;;5004420;28;20038;-67
2023/08/20 07:59:49;;;;;;;14.93;7.88;;;19.90;99.90;;;;;;5010328;28;20042;-66
2023/08/20 08:02:15;;;;;;;16.50;7.70;;;20.00;99.90;;;;;;5011815;28;20519;-67
2023/08/20 08:04:41;;;;;;;15.63;7.00;;;20.00;99.90;;;;;;4982272;28;20046;-66
2023/08/20 08:07:07;;;;;;;11.85;6.25;;;20.10;99.90;;;;;;5009668;28;20081;-67
2023/08/20 08:09:32;;;;;;;15.55;6.90;;;20.10;99.90;;;;;;5014802;28;20042;-67
2023/08/20 08:11:59;;;;;;;13.13;6.55;;;20.10;99.90;;;;;;5001723;28;20503;-67
2023/08/20 08:14:25;;;;;;;16.00;5.53;;;20.20;99.90;;;;;;4992948;28;20068;-67
2023/08/20 08:16:51;;;;;;;16.02;5.05;;;20.30;99.90;;;;;;5014619;28;20100;-66
2023/08/20 08:19:17;;;;;;;13.20;4.82;;;20.50;99.90;;;;;;5003777;28;20441;-66
2023/08/20 08:21:43;;;;;;;10.85;5.22;;;20.50;99.90;;;;;;5012261;28;20401;-66
2023/08/20 08:24:10;;;;;;;8.52;3.90;;;20.60;99.90;;;;;;5014853;28;20058;-66
2023/08/20 08:26:35;;;;;;;10.07;3.13;;;20.60;99.90;;;;;;5010702;28;20120;-67
2023/08/20 08:29:02;;;;;;;10.82;3.60;;;20.70;99.90;;;;;;4987268;28;20517;-66
2023/08/20 08:31:28;;;;;;;8.25;3.00;;;20.80;99.90;;;;;;5003862;28;20492;-66
2023/08/20 08:33:53;;;;;;;12.52;4.70;;;20.80;99.90;;;;;;5003492;28;20038;-66
2023/08/20 08:36:19;;;;;;;10.80;4.35;;;20.80;99.90;;;;;;5001511;28;20099;-66
2023/08/20 08:38:45;;;;;;;10.38;3.85;;;20.80;99.90;;;;;;5003208;28;20038;-67
2023/08/20 08:41:12;;;;;;;10.93;3.60;;;20.90;99.90;;;;;;4998480;28;20404;-67
2023/08/20 08:43:41;;;;;;;6.72;2.88;;;21.00;99.90;;;;;;4976990;28;20050;-66
2023/08/20 08:46:10;;;;;;;10.00;3.08;;;21.00;99.90;;;;;;4987328;28;20100;-67
2023/08/20 08:48:36;;;;;;;15.30;3.83;;;21.10;99.90;;;;;;5013527;28;20108;-67
2023/08/20 08:51:02;;;;;;;9.98;3.65;;;21.10;99.90;;;;;;5014681;28;20038;-73
2023/08/20 08:53:29;;;;;;;11.15;3.47;;;21.20;99.90;;;;;;4986039;28;20042;-68
2023/08/20 08:55:55;;;;;;;10.15;3.30;;;21.30;99.90;;;;;;5013664;28;20395;-67
2023/08/20 08:58:20;;;;;;;7.47;2.60;;;21.40;99.90;;;;;;5013678;28;20124;-67
2023/08/20 09:00:46;;;;;;;9.90;2.60;;;21.50;99.90;;;;;;5006502;28;20121;-66
2023/08/20 09:03:11;;;;;;;8.63;2.42;;;21.50;99.90;;;;;;5004399;28;20120;-67
2023/08/20 09:05:57;;;;;;;9.20;2.60;;;21.70;99.90;;;;;;5013489;28;20112;-67
2023/08/20 09:08:30;;;;;;;8.75;2.25;;;21.70;99.90;;;;;;5013668;28;20137;-67
2023/08/20 09:11:00;;;;;;;5.78;2.20;;;21.70;99.90;;;;;;5005951;28;20041;-67
2023/08/20 09:13:37;;;;;;;8.00;2.38;;;21.80;99.90;;;;;;4994367;28;20042;-66
2023/08/20 09:16:06;;;;;;;9.52;2.30;;;21.80;99.90;;;;;;4994153;28;20057;-67
2023/08/20 09:18:44;;;;;;;8.55;2.40;;;21.80;99.90;;;;;;4975240;28;20443;-67
2023/08/20 09:21:11;;;;;;;9.35;2.63;;;21.90;99.90;;;;;;5007315;28;20073;-67
2023/08/20 09:23:38;;;;;;;9.43;2.40;;;22.00;99.90;;;;;;4995906;28;20038;-67
2023/08/20 09:26:05;;;;;;;7.97;2.28;;;22.10;99.90;;;;;;4976308;28;20041;-67
2023/08/20 09:28:45;;;;;;;9.90;2.20;;;22.20;99.90;;;;;;5004499;28;20076;-67
2023/08/20 09:31:11;;;;;;;4.68;1.95;;;22.20;99.90;;;;;;4995770;28;20038;-67
2023/08/20 09:33:48;;;;;;;7.00;2.20;;;22.30;99.90;;;;;;4998297;28;20523;-66
2023/08/20 09:36:13;;;;;;;6.03;1.80;;;22.30;99.90;;;;;;5005869;28;20038;-67
2023/08/20 09:38:39;;;;;;;6.32;2.00;;;22.30;99.90;;;;;;5012520;28;20487;-67
2023/08/20 09:41:08;;;;;;;5.50;2.05;;;22.40;99.90;;;;;;5013465;28;20056;-69
2023/08/20 09:43:38;;;;;;;5.18;1.75;;;22.50;99.90;;;;;;4986375;28;20095;-67
2023/08/20 09:46:04;;;;;;;5.50;2.00;;;22.50;99.90;;;;;;5012141;28;20416;-67
2023/08/20 09:48:35;;;;;;;7.00;2.10;;;22.60;99.90;;;;;;5012756;28;20072;-68
2023/08/20 09:51:05;;;;;;;6.32;1.98;;;22.60;99.90;;;;;;4987256;28;20504;-68
2023/08/20 09:53:37;;;;;;;6.07;2.22;;;22.60;99.90;;;;;;5005566;28;20034;-67
2023/08/20 09:56:30;;;;;;;8.45;2.65;;;22.60;99.90;;;;;;5012651;28;20613;-67
2023/08/20 09:58:58;;;;;;;7.85;2.67;;;22.60;99.90;;;;;;5007701;28;20042;-72
2023/08/20 10:01:25;;;;;;;9.35;2.58;;;22.70;99.90;;;;;;5005775;28;20394;-68
2023/08/20 10:03:50;;;;;;;5.38;2.22;;;22.80;99.90;;;;;;5011861;28;20076;-70
2023/08/20 10:06:17;;;;;;;9.65;2.13;;;22.80;99.90;;;;;;5012900;28;20038;-68
2023/08/20 10:08:43;;;;;;;9.77;2.50;;;22.90;99.90;;;;;;4990119;28;20124;-69
2023/08/20 10:11:08;;;;;;;7.50;2.60;;;22.90;99.90;;;;;;5012289;28;20488;-68
2023/08/20 10:13:34;;;;;;;5.63;2.20;;;23.00;99.90;;;;;;5012625;28;20073;-68
2023/08/20 10:16:00;;;;;;;6.65;2.20;;;23.00;99.90;;;;;;4994746;28;20038;-68
2023/08/20 10:18:26;;;;;;;6.45;2.15;;;23.10;99.90;;;;;;5001680;28;20038;-68
2023/08/20 10:20:52;;;;;;;5.97;2.20;;;23.10;99.90;;;;;;4994501;28;20056;-69
2023/08/20 10:23:24;;;;;;;10.82;2.25;;;23.20;99.90;;;;;;5009680;28;20492;-66
2023/08/20 10:25:53;;;;;;;6.72;2.03;;;23.20;99.90;;;;;;5003861;28;20041;-68
2023/08/20 10:28:26;;;;;;;5.72;2.20;;;23.20;99.90;;;;;;5011695;28;20022;-69
2023/08/20 10:31:07;;;;;;;6.43;2.30;;;23.20;99.90;;;;;;5009705;28;20048;-68
2023/08/20 10:33:35;;;;;;;7.38;1.88;;;23.30;99.90;;;;;;4999437;28;20066;-71
2023/08/20 10:36:09;;;;;;;6.47;1.90;;;23.30;99.90;;;;;;4994477;28;20041;-69
2023/08/20 10:38:38;;;;;;;6.32;1.80;;;23.40;99.90;;;;;;5011993;28;20072;-69
2023/08/20 10:41:08;;;;;;;6.57;1.88;;;23.50;99.90;;;;;;4997444;28;20038;-70
2023/08/20 10:43:38;;;;;;;5.57;1.60;;;23.50;99.90;;;;;;5004687;28;20053;-69
2023/08/20 10:46:20;;;;;;;3.67;1.40;;;23.50;99.90;;;;;;5011915;28;20038;-69
2023/08/20 10:48:55;;;;;;;6.22;1.60;;;23.50;99.90;;;;;;5012096;28;20046;-69
2023/08/20 10:51:24;;;;;;;6.00;1.70;;;23.50;99.90;;;;;;4982687;28;20062;-70
2023/08/20 10:54:04;;;;;;;4.05;1.40;;;23.60;99.90;;;;;;5004841;28;20053;-68
2023/08/20 10:56:42;;;;;;;6.57;1.70;;;23.60;99.90;;;;;;5010441;28;20144;-69
2023/08/20 10:59:22;;;;;;;4.03;1.60;;;23.60;99.90;;;;;;4994281;28;20034;-69
2023/08/20 11:01:50;;;;;;;4.78;1.42;;;23.60;99.90;;;;;;5010143;28;20559;-69
2023/08/20 11:04:18;;;;;;;4.05;1.58;;;23.70;99.90;;;;;;5012269;28;20041;-70
2023/08/20 11:06:45;;;;;;;5.20;1.52;;;23.70;99.90;;;;;;4982887;28;20504;-70
2023/08/20 11:09:11;;;;;;;4.13;1.20;;;23.80;99.90;;;;;;4999161;28;20034;-70
2023/08/20 11:11:40;;;;;;;4.93;1.38;;;23.90;99.90;;;;;;5003133;28;20041;-69
2023/08/20 11:14:07;;;;;;;4.55;1.38;;;24.00;99.90;;;;;;4995652;28;20447;-69
2023/08/20 11:16:35;;;;;;;4.50;1.60;;;24.00;99.90;;;;;;4998632;28;20041;-69
2023/08/20 11:19:00;;;;;;;4.50;1.40;;;24.10;99.90;;;;;;4993673;28;20120;-69
2023/08/20 11:21:29;;;;;;;2.88;1.33;;;24.20;99.90;;;;;;4994419;28;20555;-69
2023/08/20 11:23:55;;;;;;;3.95;1.60;;;24.10;99.90;;;;;;5007256;28;20547;-69
2023/08/20 11:26:20;;;;;;;6.90;1.83;;;24.10;99.90;;;;;;4992876;28;20034;-69
2023/08/20 11:28:46;;;;;;;3.83;1.70;;;24.20;99.90;;;;;;5010884;28;20049;-69
2023/08/20 11:31:12;;;;;;;3.28;1.40;;;24.30;99.90;;;;;;5006079;28;20049;-69
2023/08/20 11:33:38;;;;;;;4.05;1.50;;;24.40;99.90;;;;;;5011606;28;20512;-69
2023/08/20 11:36:05;;;;;;;2.28;1.20;;;24.40;99.90;;;;;;4997808;28;20050;-69
2023/08/20 11:38:31;;;;;;;5.88;1.77;;;24.50;99.90;;;;;;4993707;28;20484;-69
2023/08/20 11:41:00;;;;;;;4.88;1.40;;;24.50;99.90;;;;;;4985941;28;20168;-69
2023/08/20 11:43:29;;;;;;;4.57;1.55;;;24.60;99.90;;;;;;4996868;28;20057;-69
2023/08/20 11:45:55;;;;;;;5.13;1.80;;;24.60;99.90;;;;;;5005301;28;20113;-69
2023/08/20 11:48:22;;;;;;;4.88;1.50;;;24.60;99.90;;;;;;5006775;28;20619;-69
2023/08/20 11:50:49;;;;;;;5.53;1.70;;;24.70;99.90;;;;;;5014524;28;20057;-69
2023/08/20 11:53:14;;;;;;;5.55;1.60;;;24.80;99.90;;;;;;5015283;28;20077;-69
2023/08/20 11:55:41;;;;;;;3.58;1.50;;;24.90;99.90;;;;;;5014976;28;20073;-69
2023/08/20 11:58:12;;;;;;;8.82;1.40;;;24.90;99.90;;;;;;5006406;28;20049;-69
2023/08/20 12:00:38;;;;;;;4.07;1.20;;;25.00;99.90;;;;;;5018595;22;20042;-73
2023/08/20 12:03:05;;;;;;;4.05;1.30;;;25.00;99.90;;;;;;4993929;28;20510;-73
2023/08/20 12:05:31;;;;;;;4.60;1.30;;;25.00;99.90;;;;;;4984904;28;20049;-72
2023/08/20 12:08:02;;;;;;;2.95;1.25;;;25.00;99.90;;;;;;4996519;28;20113;-72
2023/08/20 12:13:03;;;;;;;3.30;1.30;;;25.10;99.90;;;;;;5441137;22;20049;-72
2023/08/20 12:15:31;;;;;;;2.42;1.17;;;25.20;99.90;;;;;;5008615;28;20029;-70
2023/08/20 12:17:59;;;;;;;4.07;1.20;;;25.10;99.80;;;;;;5008706;28;20479;-73
2023/08/20 12:20:27;;;;;;;3.75;1.20;;;25.20;99.10;;;;;;5012733;28;20535;-73
2023/08/20 12:22:53;;;;;;;4.43;1.30;;;25.00;99.10;;;;;;5015260;28;20515;-72
2023/08/20 12:25:19;;;;;;;3.88;1.20;;;25.00;99.80;;;;;;5016146;28;20115;-72
2023/08/20 12:27:44;;;;;;;3.25;1.30;;;25.20;99.90;;;;;;5014503;28;20153;-72
2023/08/20 12:30:11;;;;;;;5.20;1.27;;;25.10;99.90;;;;;;5000214;28;20056;-72
2023/08/20 12:32:36;;;;;;;2.67;0.93;;;25.10;99.80;;;;;;5005392;28;20132;-73
2023/08/20 12:35:02;;;;;;;3.25;0.70;;;25.30;99.00;;;;;;5016937;28;20199;-73
2023/08/20 12:37:28;;;;;;;2.53;0.90;;;25.40;97.80;;;;;;5012046;28;20564;-73
2023/08/20 12:39:53;;;;;;;4.60;1.40;;;25.60;98.30;;;;;;5005346;28;20041;-73